Time;durP1;ratioP1;P1;durP2;ratioP2;P2;SDS_P1;SDS_P2;PMS_P1;PMS_P2;Temp;Humidity;BMP_temperature;BMP_pressure;BME280_temperature;BME280_humidity;BME280_pressure;Samples;Min_cycle;Max_cycle;Signal;HPM_P1;HPM_P2
2022/07/23 00:00:19;;;;;;;1.30;0.90;;;;;;;;;;5057923;28;20523;-75
2022/07/23 00:02:47;;;;;;;0.70;0.70;;;;;;;;;;5037831;28;20885;-74
2022/07/23 00:05:14;;;;;;;0.87;0.87;;;;;;;;;;5038896;28;20505;-76
2022/07/23 00:07:42;;;;;;;0.93;0.93;;;;;;;;;;5056105;28;20542;-74
2022/07/23 00:10:12;;;;;;;0.90;0.90;;;;;;;;;;5042554;28;20534;-77
2022/07/23 00:12:39;;;;;;;0.80;0.70;;;;;;;;;;5057785;28;20425;-74
2022/07/23 00:15:18;;;;;;;2.27;0.90;;;;;;;;;;5055745;28;20892;-75
2022/07/23 00:17:47;;;;;;;1.43;1.33;;;;;;;;;;5054345;28;20434;-76
2022/07/23 00:20:14;;;;;;;0.80;0.73;;;;;;;;;;5037879;28;20447;-74
2022/07/23 00:22:45;;;;;;;1.73;0.90;;;;;;;;;;5053835;28;20509;-75
2022/07/23 00:25:12;;;;;;;1.77;1.30;;;;;;;;;;5053599;28;20898;-77
2022/07/23 00:27:57;;;;;;;0.90;0.90;;;;;;;;;;5054611;28;20415;-77
2022/07/23 00:30:24;;;;;;;1.40;1.30;;;;;;;;;;5055170;28;20800;-77
2022/07/23 00:32:54;;;;;;;8.53;1.73;;;;;;;;;;5072364;28;20465;-77
2022/07/23 00:35:23;;;;;;;0.87;0.87;;;;;;;;;;5073850;28;20973;-77
2022/07/23 00:37:50;;;;;;;2.00;1.90;;;;;;;;;;5074196;28;20459;-77
2022/07/23 00:40:17;;;;;;;0.70;0.70;;;;;;;;;;5057933;28;20429;-77
2022/07/23 00:42:44;;;;;;;2.43;2.33;;;;;;;;;;5070765;28;20528;-76
2022/07/23 00:45:12;;;;;;;0.80;0.73;;;;;;;;;;5069553;28;20440;-77
2022/07/23 00:47:39;;;;;;;2.07;1.90;;;;;;;;;;5074448;28;20785;-77
2022/07/23 00:50:09;;;;;;;0.80;0.80;;;;;;;;;;5073984;28;20443;-78
2022/07/23 00:52:37;;;;;;;1.63;1.53;;;;;;;;;;5073823;28;20462;-77
2022/07/23 00:55:10;;;;;;;0.70;0.70;;;;;;;;;;5073940;28;20954;-78
2022/07/23 00:57:41;;;;;;;0.70;0.60;;;;;;;;;;5073286;28;20524;-78
2022/07/23 01:00:13;;;;;;;1.27;1.17;;;;;;;;;;5057281;28;20956;-78
2022/07/23 01:02:43;;;;;;;1.50;1.40;;;;;;;;;;5073757;28;20514;-79
2022/07/23 01:05:17;;;;;;;2.40;2.30;;;;;;;;;;5054067;28;20481;-78
2022/07/23 01:07:54;;;;;;;1.13;1.10;;;;;;;;;;5053606;28;20443;-78
2022/07/23 01:10:32;;;;;;;0.70;0.60;;;;;;;;;;5037913;28;20453;-78
2022/07/23 01:13:06;;;;;;;1.67;1.30;;;;;;;;;;5054733;28;21021;-78
2022/07/23 01:15:43;;;;;;;1.63;1.53;;;;;;;;;;5054749;28;20993;-78
2022/07/23 01:18:16;;;;;;;0.70;0.70;;;;;;;;;;5054002;28;20445;-78
2022/07/23 01:20:54;;;;;;;0.70;0.70;;;;;;;;;;5052643;28;21099;-80
2022/07/23 01:23:25;;;;;;;3.30;3.00;;;;;;;;;;5052888;28;20955;-80
2022/07/23 01:26:02;;;;;;;0.70;0.60;;;;;;;;;;5038371;28;20461;-80
2022/07/23 01:28:32;;;;;;;0.90;0.87;;;;;;;;;;5044050;28;20514;-81
2022/07/23 01:31:06;;;;;;;0.70;0.70;;;;;;;;;;5065570;28;20497;-82
2022/07/23 01:33:38;;;;;;;3.30;3.10;;;;;;;;;;5060233;28;20837;-82
2022/07/23 01:36:10;;;;;;;0.70;0.70;;;;;;;;;;5055779;28;20832;-82
2022/07/23 01:38:44;;;;;;;1.00;1.00;;;;;;;;;;5057110;28;20863;-81
2022/07/23 01:41:22;;;;;;;0.80;0.80;;;;;;;;;;5072433;28;20491;-80
2022/07/23 01:43:54;;;;;;;0.70;0.70;;;;;;;;;;5069012;28;20965;-81
2022/07/23 01:46:26;;;;;;;2.10;1.13;;;;;;;;;;5073929;28;20459;-81
2022/07/23 01:49:01;;;;;;;0.70;0.67;;;;;;;;;;5073954;28;20450;-81
2022/07/23 01:51:59;;;;;;;5.00;1.27;;;;;;;;;;5073789;28;20455;-82
2022/07/23 01:54:55;;;;;;;1.30;1.20;;;;;;;;;;5063570;28;20451;-83
2022/07/23 01:57:44;;;;;;;0.80;0.70;;;;;;;;;;5072938;28;20451;-82
2022/07/23 02:00:20;;;;;;;0.77;0.77;;;;;;;;;;5057322;28;20445;-82
2022/07/23 02:02:52;;;;;;;1.43;1.33;;;;;;;;;;5057772;28;20986;-83
2022/07/23 02:05:22;;;;;;;0.67;0.60;;;;;;;;;;5071301;28;20960;-84
2022/07/23 02:07:50;;;;;;;1.63;1.53;;;;;;;;;;5063741;28;20437;-83
2022/07/23 02:10:20;;;;;;;0.90;0.80;;;;;;;;;;5072626;28;20498;-83
2022/07/23 02:12:48;;;;;;;0.70;0.70;;;;;;;;;;5056848;28;20823;-82
2022/07/23 02:15:15;;;;;;;3.73;1.20;;;;;;;;;;5073623;28;20472;-82
2022/07/23 02:17:42;;;;;;;0.80;0.80;;;;;;;;;;5056087;28;20437;-83
2022/07/23 02:20:11;;;;;;;0.80;0.80;;;;;;;;;;5056460;28;20453;-83
2022/07/23 02:22:38;;;;;;;0.70;0.60;;;;;;;;;;5061036;28;20493;-83
2022/07/23 02:25:06;;;;;;;0.70;0.60;;;;;;;;;;5056619;28;20790;-82
2022/07/23 02:27:36;;;;;;;0.77;0.77;;;;;;;;;;5072432;28;20459;-83
2022/07/23 02:30:05;;;;;;;1.20;1.10;;;;;;;;;;5041102;28;20448;-83
2022/07/23 02:32:33;;;;;;;2.63;2.43;;;;;;;;;;5053790;28;20474;-83
2022/07/23 02:35:00;;;;;;;3.00;2.43;;;;;;;;;;5055377;28;20450;-83
2022/07/23 02:37:27;;;;;;;1.10;0.93;;;;;;;;;;5055837;28;20969;-81
2022/07/23 02:39:54;;;;;;;1.03;1.00;;;;;;;;;;5040089;28;20568;-82
2022/07/23 02:42:21;;;;;;;0.70;0.63;;;;;;;;;;5057912;28;20471;-82
2022/07/23 02:44:50;;;;;;;1.10;1.10;;;;;;;;;;5059225;28;20436;-81
2022/07/23 02:47:17;;;;;;;0.70;0.70;;;;;;;;;;5042803;28;20468;-81
2022/07/23 02:49:44;;;;;;;0.70;0.60;;;;;;;;;;5047707;28;20447;-81
2022/07/23 02:52:12;;;;;;;0.70;0.70;;;;;;;;;;5047287;28;20474;-80
2022/07/23 02:54:42;;;;;;;0.80;0.77;;;;;;;;;;5046106;28;20579;-81
2022/07/23 02:57:12;;;;;;;0.80;0.80;;;;;;;;;;5046847;28;20437;-81
2022/07/23 02:59:41;;;;;;;0.73;0.73;;;;;;;;;;5047923;28;20436;-81
2022/07/23 03:02:09;;;;;;;1.83;1.73;;;;;;;;;;5063288;28;20453;-81
2022/07/23 03:04:37;;;;;;;0.70;0.60;;;;;;;;;;5072666;28;20508;-83
2022/07/23 03:07:05;;;;;;;1.00;1.00;;;;;;;;;;5045209;28;20527;-81
2022/07/23 03:09:32;;;;;;;0.70;0.70;;;;;;;;;;5063599;28;20446;-81
2022/07/23 03:12:01;;;;;;;3.23;1.43;;;;;;;;;;5064143;28;20440;-82
2022/07/23 03:14:29;;;;;;;0.70;0.70;;;;;;;;;;5048012;28;20449;-81
2022/07/23 03:16:56;;;;;;;0.70;0.70;;;;;;;;;;5075565;28;20497;-80
2022/07/23 03:19:29;;;;;;;3.37;0.90;;;;;;;;;;5046659;28;20451;-80
2022/07/23 03:21:55;;;;;;;1.20;1.10;;;;;;;;;;5050426;28;20528;-81
2022/07/23 03:24:23;;;;;;;0.80;0.80;;;;;;;;;;5062913;28;20464;-82
2022/07/23 03:26:50;;;;;;;0.90;0.90;;;;;;;;;;5076539;28;20433;-82
2022/07/23 03:29:17;;;;;;;2.30;2.20;;;;;;;;;;5076321;28;20415;-81
2022/07/23 03:31:43;;;;;;;1.33;1.23;;;;;;;;;;5076452;28;20859;-82
2022/07/23 03:34:10;;;;;;;0.70;0.60;;;;;;;;;;5061068;28;20530;-81
2022/07/23 03:36:38;;;;;;;1.83;1.73;;;;;;;;;;5059982;28;20482;-81
2022/07/23 03:39:06;;;;;;;0.70;0.70;;;;;;;;;;5040234;28;20801;-81
2022/07/23 03:41:39;;;;;;;1.43;1.33;;;;;;;;;;5056318;28;20514;-80
2022/07/23 03:44:06;;;;;;;1.83;1.67;;;;;;;;;;5059626;28;21037;-81
2022/07/23 03:46:32;;;;;;;1.07;1.00;;;;;;;;;;5041438;28;20472;-82
2022/07/23 03:48:59;;;;;;;0.70;0.67;;;;;;;;;;5057445;28;20446;-81
2022/07/23 03:51:26;;;;;;;0.70;0.70;;;;;;;;;;5041286;28;20467;-80
2022/07/23 03:53:55;;;;;;;0.80;0.70;;;;;;;;;;5058553;28;20482;-81
2022/07/23 03:56:22;;;;;;;3.83;1.40;;;;;;;;;;5043098;28;20436;-81
2022/07/23 03:58:49;;;;;;;0.70;0.70;;;;;;;;;;5043718;28;20974;-79
2022/07/23 04:01:17;;;;;;;0.80;0.80;;;;;;;;;;5054934;28;20435;-79
2022/07/23 04:03:43;;;;;;;0.80;0.80;;;;;;;;;;5059045;28;20641;-79
2022/07/23 04:06:11;;;;;;;0.77;0.77;;;;;;;;;;5062564;28;21083;-78
2022/07/23 04:08:38;;;;;;;0.70;0.70;;;;;;;;;;5065921;28;20442;-79
2022/07/23 04:11:06;;;;;;;0.70;0.70;;;;;;;;;;5058542;28;20539;-80
2022/07/23 04:13:33;;;;;;;0.70;0.67;;;;;;;;;;5042962;28;20475;-80
2022/07/23 04:16:03;;;;;;;1.10;1.00;;;;;;;;;;5042342;28;20432;-80
2022/07/23 04:18:30;;;;;;;0.87;0.83;;;;;;;;;;5061105;28;20857;-79
2022/07/23 04:21:05;;;;;;;0.90;0.90;;;;;;;;;;5062314;28;20461;-80
2022/07/23 04:23:32;;;;;;;1.33;1.10;;;;;;;;;;5074206;28;20463;-79
2022/07/23 04:25:59;;;;;;;2.70;2.33;;;;;;;;;;5078581;28;20438;-79
2022/07/23 04:28:28;;;;;;;1.17;1.10;;;;;;;;;;5075866;28;20485;-80
2022/07/23 04:30:55;;;;;;;1.30;1.10;;;;;;;;;;5060822;28;20466;-81
2022/07/23 04:33:25;;;;;;;3.00;1.83;;;;;;;;;;5059411;28;20471;-80
2022/07/23 04:35:55;;;;;;;1.13;1.03;;;;;;;;;;5074921;28;20892;-79
2022/07/23 04:38:22;;;;;;;1.43;1.33;;;;;;;;;;5058890;28;20493;-80
2022/07/23 04:40:51;;;;;;;2.60;2.00;;;;;;;;;;5063361;28;20444;-81
2022/07/23 04:43:19;;;;;;;1.07;0.97;;;;;;;;;;5079412;28;20475;-80
2022/07/23 04:45:50;;;;;;;1.20;1.10;;;;;;;;;;5077115;28;20477;-81
2022/07/23 04:48:17;;;;;;;0.60;0.60;;;;;;;;;;5059095;28;20477;-82
2022/07/23 04:50:45;;;;;;;0.73;0.73;;;;;;;;;;5079020;28;20550;-80
2022/07/23 04:53:21;;;;;;;1.37;1.00;;;;;;;;;;5054838;28;20473;-79
2022/07/23 04:55:53;;;;;;;1.27;1.00;;;;;;;;;;5071407;28;20538;-79
2022/07/23 04:58:20;;;;;;;1.37;1.27;;;;;;;;;;5055108;28;20428;-78
2022/07/23 05:00:47;;;;;;;0.70;0.67;;;;;;;;;;5062263;28;20446;-80
2022/07/23 05:03:15;;;;;;;1.20;1.10;;;;;;;;;;5077753;28;21057;-80
2022/07/23 05:05:45;;;;;;;1.13;1.03;;;;;;;;;;5075679;28;20531;-80
2022/07/23 05:08:15;;;;;;;1.07;1.00;;;;;;;;;;5075448;28;20436;-79
2022/07/23 05:10:46;;;;;;;9.43;1.70;;;;;;;;;;5055149;28;20436;-79
2022/07/23 05:13:14;;;;;;;0.80;0.80;;;;;;;;;;5038116;28;20468;-79
2022/07/23 05:15:40;;;;;;;1.33;1.20;;;;;;;;;;5037793;28;20511;-80
2022/07/23 05:18:08;;;;;;;0.90;0.90;;;;;;;;;;5041605;28;20456;-79
2022/07/23 05:20:37;;;;;;;0.60;0.60;;;;;;;;;;5037320;28;20973;-80
2022/07/23 05:23:07;;;;;;;1.63;1.17;;;;;;;;;;5051812;28;21081;-79
2022/07/23 05:25:35;;;;;;;4.50;1.40;;;;;;;;;;5060245;28;20443;-79
2022/07/23 05:28:02;;;;;;;2.23;2.13;;;;;;;;;;5053586;28;20470;-79
2022/07/23 05:30:29;;;;;;;0.70;0.70;;;;;;;;;;5073289;28;20550;-79
2022/07/23 05:33:00;;;;;;;1.00;1.00;;;;;;;;;;5073884;28;20436;-79
2022/07/23 05:35:27;;;;;;;1.00;1.00;;;;;;;;;;5057051;28;20858;-79
2022/07/23 05:38:32;;;;;;;1.63;1.00;;;;;;;;;;5059041;28;20452;-78
2022/07/23 05:41:01;;;;;;;0.70;0.70;;;;;;;;;;5057002;28;20468;-78
2022/07/23 05:43:29;;;;;;;1.77;1.57;;;;;;;;;;5053383;28;20461;-78
2022/07/23 05:45:59;;;;;;;0.97;0.97;;;;;;;;;;5037656;28;20947;-78
2022/07/23 05:48:27;;;;;;;0.70;0.60;;;;;;;;;;5053856;28;20953;-78
2022/07/23 05:51:00;;;;;;;0.60;0.60;;;;;;;;;;5053389;28;20499;-78
2022/07/23 05:53:30;;;;;;;3.70;1.20;;;;;;;;;;5038130;28;20475;-78
2022/07/23 05:56:05;;;;;;;0.60;0.60;;;;;;;;;;5037915;28;20450;-78
2022/07/23 05:58:32;;;;;;;0.70;0.60;;;;;;;;;;5052961;28;20458;-78
2022/07/23 06:00:59;;;;;;;0.70;0.60;;;;;;;;;;5057495;28;20467;-78
2022/07/23 06:03:28;;;;;;;2.40;2.30;;;;;;;;;;5071754;28;20481;-77
2022/07/23 06:05:55;;;;;;;0.80;0.80;;;;;;;;;;5042430;28;20477;-78
2022/07/23 06:08:23;;;;;;;0.80;0.80;;;;;;;;;;5053471;28;20454;-78
2022/07/23 06:10:50;;;;;;;0.80;0.80;;;;;;;;;;5055669;28;20789;-78
2022/07/23 06:13:18;;;;;;;0.70;0.70;;;;;;;;;;5053051;28;20437;-79
2022/07/23 06:15:46;;;;;;;0.60;0.53;;;;;;;;;;5058953;28;20453;-79
2022/07/23 06:18:13;;;;;;;4.73;2.20;;;;;;;;;;5055958;28;20446;-79
2022/07/23 06:20:40;;;;;;;0.70;0.70;;;;;;;;;;5056758;28;20437;-79
2022/07/23 06:23:07;;;;;;;1.33;1.10;;;;;;;;;;5051257;28;20471;-79
2022/07/23 06:25:34;;;;;;;0.80;0.80;;;;;;;;;;5056365;28;20455;-78
2022/07/23 06:28:01;;;;;;;0.60;0.60;;;;;;;;;;5073220;28;20449;-78
2022/07/23 06:30:30;;;;;;;2.13;2.03;;;;;;;;;;5055639;28;20452;-79
2022/07/23 06:32:57;;;;;;;0.87;0.87;;;;;;;;;;5072447;28;20487;-79
2022/07/23 06:35:24;;;;;;;1.77;1.13;;;;;;;;;;5072666;28;20458;-79
2022/07/23 06:37:51;;;;;;;4.43;1.37;;;;;;;;;;5072294;28;20499;-78
2022/07/23 06:40:18;;;;;;;0.70;0.70;;;;;;;;;;5055276;28;20440;-79
2022/07/23 06:42:45;;;;;;;1.47;1.37;;;;;;;;;;5052331;28;20474;-79
2022/07/23 06:45:17;;;;;;;0.70;0.70;;;;;;;;;;5036943;28;20497;-79
2022/07/23 06:47:45;;;;;;;2.40;2.30;;;;;;;;;;5036377;28;20447;-79
2022/07/23 06:50:11;;;;;;;27.37;2.30;;;;;;;;;;5052701;28;20465;-79
2022/07/23 06:52:41;;;;;;;4.30;2.13;;;;;;;;;;5039359;28;20520;-80
2022/07/23 06:55:10;;;;;;;0.70;0.70;;;;;;;;;;5055125;28;20511;-79
2022/07/23 06:57:37;;;;;;;1.10;1.00;;;;;;;;;;5073729;28;20436;-80
2022/07/23 07:00:06;;;;;;;1.43;1.33;;;;;;;;;;5071936;28;20967;-80
2022/07/23 07:02:33;;;;;;;1.53;1.17;;;;;;;;;;5072774;28;20502;-80
2022/07/23 07:05:01;;;;;;;1.10;1.00;;;;;;;;;;5055701;28;21013;-79
2022/07/23 07:07:31;;;;;;;1.90;1.67;;;;;;;;;;5071704;28;20467;-80
2022/07/23 07:09:58;;;;;;;0.73;0.73;;;;;;;;;;5056113;28;20457;-80
2022/07/23 07:12:25;;;;;;;1.33;1.27;;;;;;;;;;5069668;28;20450;-80
2022/07/23 07:14:53;;;;;;;1.47;1.07;;;;;;;;;;5060379;28;20449;-81
2022/07/23 07:17:20;;;;;;;2.43;2.23;;;;;;;;;;5048523;28;20792;-80
2022/07/23 07:19:46;;;;;;;0.70;0.70;;;;;;;;;;5053140;28;20470;-81
2022/07/23 07:22:15;;;;;;;5.10;3.70;;;;;;;;;;5055827;28;20520;-81
2022/07/23 07:24:42;;;;;;;2.60;2.40;;;;;;;;;;5058077;28;20524;-80
2022/07/23 07:27:09;;;;;;;1.63;1.53;;;;;;;;;;5052613;28;20425;-81
2022/07/23 07:29:37;;;;;;;1.90;1.03;;;;;;;;;;5054280;28;20931;-80
2022/07/23 07:32:05;;;;;;;1.63;1.47;;;;;;;;;;5054507;28;20796;-80
2022/07/23 07:34:32;;;;;;;3.10;2.90;;;;;;;;;;5053580;28;20477;-80
2022/07/23 07:36:59;;;;;;;1.43;1.30;;;;;;;;;;5062032;28;20482;-81
2022/07/23 07:39:28;;;;;;;1.90;1.80;;;;;;;;;;5062620;28;20461;-80
2022/07/23 07:41:56;;;;;;;1.83;1.73;;;;;;;;;;5078222;28;20599;-80
2022/07/23 07:44:22;;;;;;;1.03;1.00;;;;;;;;;;5078701;28;20458;-81
2022/07/23 07:46:51;;;;;;;0.70;0.70;;;;;;;;;;5078196;28;20418;-81
2022/07/23 07:49:19;;;;;;;0.90;0.80;;;;;;;;;;5078079;28;20489;-82
2022/07/23 07:51:48;;;;;;;0.90;0.90;;;;;;;;;;5060868;28;20467;-82
2022/07/23 07:54:16;;;;;;;0.77;0.77;;;;;;;;;;5075827;28;21153;-82
2022/07/23 07:56:45;;;;;;;5.70;1.27;;;;;;;;;;5075960;28;20454;-80
2022/07/23 07:59:14;;;;;;;1.77;1.67;;;;;;;;;;5060551;28;20424;-81
2022/07/23 08:01:41;;;;;;;1.23;1.13;;;;;;;;;;5062834;28;20943;-81
2022/07/23 08:04:08;;;;;;;1.77;1.63;;;;;;;;;;5077434;28;20493;-80
2022/07/23 08:06:35;;;;;;;1.57;1.47;;;;;;;;;;5071770;28;20459;-77
2022/07/23 08:09:02;;;;;;;1.93;1.83;;;;;;;;;;5057182;28;20954;-78
2022/07/23 08:11:28;;;;;;;1.53;1.43;;;;;;;;;;5057242;28;20485;-80
2022/07/23 08:13:56;;;;;;;0.80;0.80;;;;;;;;;;5055402;28;20803;-78
2022/07/23 08:16:25;;;;;;;0.70;0.60;;;;;;;;;;5038679;28;20419;-80
2022/07/23 08:18:52;;;;;;;0.90;0.87;;;;;;;;;;5038347;28;20406;-79
2022/07/23 08:21:18;;;;;;;1.57;1.13;;;;;;;;;;5048473;28;20451;-80
2022/07/23 08:23:47;;;;;;;0.70;0.60;;;;;;;;;;5054427;28;20518;-79
2022/07/23 08:26:14;;;;;;;4.40;4.07;;;;;;;;;;5054344;28;20445;-81
2022/07/23 08:28:40;;;;;;;0.97;0.87;;;;;;;;;;5055522;28;20391;-80
2022/07/23 08:31:10;;;;;;;0.80;0.80;;;;;;;;;;5054447;28;20440;-78
2022/07/23 08:33:38;;;;;;;0.70;0.60;;;;;;;;;;5044502;28;20445;-79
2022/07/23 08:36:05;;;;;;;1.37;1.30;;;;;;;;;;5074272;28;20496;-79
2022/07/23 08:38:32;;;;;;;0.70;0.70;;;;;;;;;;5057874;28;20492;-78
2022/07/23 08:40:59;;;;;;;0.93;0.93;;;;;;;;;;5057668;28;20756;-78
2022/07/23 08:43:27;;;;;;;0.80;0.77;;;;;;;;;;5073857;28;20444;-78
2022/07/23 08:45:58;;;;;;;1.00;0.90;;;;;;;;;;5055797;28;20500;-80
2022/07/23 08:48:29;;;;;;;0.80;0.70;;;;;;;;;;5057479;28;20950;-79
2022/07/23 08:50:58;;;;;;;0.80;0.80;;;;;;;;;;5073748;28;20463;-78
2022/07/23 08:53:26;;;;;;;0.90;0.90;;;;;;;;;;5074749;28;20924;-77
2022/07/23 08:55:54;;;;;;;0.70;0.70;;;;;;;;;;5074340;28;20759;-78
2022/07/23 08:58:21;;;;;;;1.60;1.50;;;;;;;;;;5074167;28;20900;-78
2022/07/23 09:00:53;;;;;;;1.10;1.00;;;;;;;;;;5073901;28;20420;-80
2022/07/23 09:03:21;;;;;;;1.03;0.97;;;;;;;;;;5073361;28;20477;-80
2022/07/23 09:05:51;;;;;;;1.50;1.40;;;;;;;;;;5057069;28;20462;-80
2022/07/23 09:08:21;;;;;;;1.23;1.13;;;;;;;;;;5066602;28;20939;-79
2022/07/23 09:10:49;;;;;;;1.10;0.90;;;;;;;;;;5067413;28;20504;-79
2022/07/23 09:13:33;;;;;;;1.77;1.40;;;;;;;;;;5067570;28;20459;-81
2022/07/23 09:16:03;;;;;;;1.40;1.30;;;;;;;;;;5057737;28;20481;-79
2022/07/23 09:18:38;;;;;;;1.10;0.97;;;;;;;;;;5062367;28;20438;-80
2022/07/23 09:21:07;;;;;;;3.00;2.80;;;;;;;;;;5053961;28;20545;-78
2022/07/23 09:23:39;;;;;;;2.53;1.83;;;;;;;;;;5053739;28;20545;-81
2022/07/23 09:26:24;;;;;;;1.60;1.50;;;;;;;;;;5055484;28;20833;-81
2022/07/23 09:28:53;;;;;;;0.83;0.80;;;;;;;;;;5054185;28;20521;-80
2022/07/23 09:31:20;;;;;;;1.27;1.17;;;;;;;;;;5053745;28;20940;-78
2022/07/23 09:33:47;;;;;;;2.27;2.17;;;;;;;;;;5061171;28;20836;-78
2022/07/23 09:36:26;;;;;;;1.70;1.57;;;;;;;;;;5053400;28;20995;-78
2022/07/23 09:38:54;;;;;;;1.93;1.83;;;;;;;;;;5059363;28;20508;-79
2022/07/23 09:41:24;;;;;;;2.37;2.17;;;;;;;;;;5066049;28;20535;-80
2022/07/23 09:43:57;;;;;;;3.10;1.47;;;;;;;;;;5049468;28;20463;-79
2022/07/23 09:46:25;;;;;;;1.93;1.83;;;;;;;;;;5074050;28;20439;-77
2022/07/23 09:48:52;;;;;;;0.80;0.70;;;;;;;;;;5056725;28;20947;-79
2022/07/23 09:51:36;;;;;;;1.30;0.90;;;;;;;;;;5073639;28;20548;-77
2022/07/23 09:54:03;;;;;;;2.30;2.20;;;;;;;;;;5060080;28;20435;-79
2022/07/23 09:56:35;;;;;;;1.23;1.13;;;;;;;;;;5052322;28;20932;-77
2022/07/23 09:59:35;;;;;;;1.60;1.50;;;;;;;;;;5055016;28;20444;-77
2022/07/23 10:01:56;;;;;;;0.73;0.70;;;;;;;;;;5054381;28;20555;-77
2022/07/23 10:04:24;;;;;;;0.70;0.70;;;;;;;;;;5067699;28;20467;-76
2022/07/23 10:06:55;;;;;;;2.20;1.30;;;;;;;;;;5076942;28;20447;-76
2022/07/23 10:09:41;;;;;;;1.47;1.37;;;;;;;;;;5075474;28;20927;-77
2022/07/23 10:15:21;;;;;;;1.13;1.03;;;;;;;;;;5069702;28;20427;-77
2022/07/23 10:17:50;;;;;;;1.47;0.87;;;;;;;;;;5068371;28;21028;-77
2022/07/23 10:20:20;;;;;;;0.90;0.80;;;;;;;;;;5070321;28;20434;-77
2022/07/23 10:22:51;;;;;;;0.80;0.80;;;;;;;;;;5067899;28;20474;-77
2022/07/23 10:25:22;;;;;;;1.33;0.90;;;;;;;;;;5059401;28;20467;-76
2022/07/23 10:28:04;;;;;;;1.40;1.30;;;;;;;;;;5044800;28;20448;-76
2022/07/23 10:30:33;;;;;;;0.90;0.70;;;;;;;;;;5052838;28;20412;-76
2022/07/23 10:33:09;;;;;;;1.60;1.07;;;;;;;;;;5053573;28;20431;-77
2022/07/23 10:35:43;;;;;;;0.80;0.80;;;;;;;;;;5052202;28;20431;-75
2022/07/23 10:38:13;;;;;;;0.80;0.63;;;;;;;;;;5052006;28;20489;-76
2022/07/23 10:40:53;;;;;;;0.80;0.60;;;;;;;;;;5052533;28;20511;-75
2022/07/23 10:43:20;;;;;;;1.03;0.93;;;;;;;;;;5052726;28;20448;-75
2022/07/23 10:45:48;;;;;;;0.87;0.60;;;;;;;;;;5052386;28;20493;-76
2022/07/23 10:48:16;;;;;;;1.20;0.93;;;;;;;;;;5037503;28;20446;-75
2022/07/23 10:50:45;;;;;;;0.90;0.60;;;;;;;;;;5053359;28;20473;-76
2022/07/23 10:53:17;;;;;;;1.20;1.00;;;;;;;;;;5062608;28;20470;-75
2022/07/23 10:55:46;;;;;;;1.20;0.83;;;;;;;;;;5073648;28;20407;-76
2022/07/23 10:58:18;;;;;;;1.43;1.20;;;;;;;;;;5074538;28;20489;-75
2022/07/23 11:00:46;;;;;;;0.90;0.80;;;;;;;;;;5075854;28;20946;-74
2022/07/23 11:03:29;;;;;;;2.40;1.20;;;;;;;;;;5069885;28;20947;-75
2022/07/23 11:05:57;;;;;;;1.57;1.03;;;;;;;;;;5063729;28;20577;-75
2022/07/23 11:08:25;;;;;;;0.90;0.70;;;;;;;;;;5056568;28;20435;-75
2022/07/23 11:10:53;;;;;;;1.00;0.83;;;;;;;;;;5060560;28;20956;-77
2022/07/23 11:13:46;;;;;;;1.10;0.93;;;;;;;;;;5077358;28;20435;-77
2022/07/23 11:16:15;;;;;;;1.40;1.30;;;;;;;;;;5054865;28;20439;-76
2022/07/23 11:18:55;;;;;;;0.80;0.60;;;;;;;;;;5057359;28;20415;-76
2022/07/23 11:21:39;;;;;;;0.90;0.80;;;;;;;;;;5075246;28;20466;-76
2022/07/23 11:24:08;;;;;;;1.00;0.70;;;;;;;;;;5045598;28;20491;-76
2022/07/23 11:26:46;;;;;;;0.80;0.60;;;;;;;;;;5059025;28;20478;-75
2022/07/23 11:29:31;;;;;;;1.20;1.00;;;;;;;;;;5074714;28;20431;-75
2022/07/23 11:31:59;;;;;;;1.13;0.90;;;;;;;;;;5076411;28;20431;-76
2022/07/23 11:34:29;;;;;;;1.17;1.07;;;;;;;;;;5071241;28;20562;-76
2022/07/23 11:36:56;;;;;;;1.00;0.77;;;;;;;;;;5046696;28;20513;-75
2022/07/23 11:39:26;;;;;;;0.80;0.60;;;;;;;;;;5055407;28;20463;-75
2022/07/23 11:41:53;;;;;;;2.10;1.23;;;;;;;;;;5055154;28;20470;-75
2022/07/23 11:44:25;;;;;;;1.73;1.63;;;;;;;;;;5056792;28;20514;-76
2022/07/23 11:46:54;;;;;;;1.57;1.47;;;;;;;;;;5038657;28;20429;-76
2022/07/23 11:49:21;;;;;;;1.10;0.90;;;;;;;;;;5056318;28;20436;-75
2022/07/23 11:52:02;;;;;;;1.57;1.13;;;;;;;;;;5038696;28;20459;-76
2022/07/23 11:54:30;;;;;;;2.43;1.13;;;;;;;;;;5071927;28;20867;-77
2022/07/23 11:57:03;;;;;;;2.07;1.87;;;;;;;;;;5075330;28;20435;-75
2022/07/23 11:59:32;;;;;;;1.60;1.13;;;;;;;;;;5075378;28;20545;-77
2022/07/23 12:01:59;;;;;;;0.80;0.60;;;;;;;;;;5058797;28;20471;-76
2022/07/23 12:04:36;;;;;;;0.80;0.57;;;;;;;;;;5074549;28;20509;-76
2022/07/23 12:07:03;;;;;;;8.50;2.80;;;;;;;;;;5075011;28;20859;-76
2022/07/23 12:09:32;;;;;;;1.17;1.07;;;;;;;;;;5074912;28;20428;-76
2022/07/23 12:11:59;;;;;;;1.00;0.90;;;;;;;;;;5058160;28;20451;-75
2022/07/23 12:14:26;;;;;;;0.90;0.80;;;;;;;;;;5074841;28;20455;-74
2022/07/23 12:17:08;;;;;;;0.80;0.50;;;;;;;;;;5074084;28;20455;-75
2022/07/23 12:19:36;;;;;;;0.90;0.80;;;;;;;;;;5072056;28;20443;-75
2022/07/23 12:22:04;;;;;;;0.83;0.60;;;;;;;;;;5076419;28;20459;-75
2022/07/23 12:24:51;;;;;;;1.10;0.80;;;;;;;;;;5070897;28;20509;-75
2022/07/23 12:27:20;;;;;;;1.17;1.03;;;;;;;;;;5072830;28;20450;-75
2022/07/23 12:29:47;;;;;;;1.10;1.00;;;;;;;;;;5075947;28;20451;-76
2022/07/23 12:32:18;;;;;;;1.10;0.73;;;;;;;;;;5081329;28;20481;-76
2022/07/23 12:34:51;;;;;;;0.90;0.70;;;;;;;;;;5069970;28;20436;-76
2022/07/23 12:37:25;;;;;;;1.27;1.17;;;;;;;;;;5069870;28;20446;-76
2022/07/23 12:39:56;;;;;;;0.70;0.50;;;;;;;;;;5056423;28;20434;-77
2022/07/23 12:42:24;;;;;;;0.80;0.60;;;;;;;;;;5054245;28;20945;-77
2022/07/23 12:45:09;;;;;;;1.00;0.60;;;;;;;;;;5071085;28;21001;-76
2022/07/23 12:47:54;;;;;;;0.80;0.60;;;;;;;;;;5050363;28;20489;-76
2022/07/23 12:50:46;;;;;;;0.73;0.50;;;;;;;;;;5074372;28;20443;-75
2022/07/23 12:53:15;;;;;;;1.33;1.23;;;;;;;;;;5060419;28;20459;-76
2022/07/23 12:56:05;;;;;;;0.90;0.60;;;;;;;;;;5060421;28;20453;-76
2022/07/23 12:58:45;;;;;;;0.80;0.53;;;;;;;;;;5064877;28;20442;-76
2022/07/23 13:01:27;;;;;;;0.80;0.60;;;;;;;;;;5056027;28;20449;-76
2022/07/23 13:04:01;;;;;;;0.90;0.60;;;;;;;;;;5071010;28;20435;-75
2022/07/23 13:06:31;;;;;;;2.10;0.87;;;;;;;;;;5059327;28;20529;-77
2022/07/23 13:08:59;;;;;;;1.00;0.90;;;;;;;;;;5041993;28;20504;-76
2022/07/23 13:11:48;;;;;;;0.80;0.60;;;;;;;;;;5073883;28;20442;-76
2022/07/23 13:14:16;;;;;;;1.00;0.70;;;;;;;;;;5074556;28;20981;-77
2022/07/23 13:16:43;;;;;;;1.00;0.70;;;;;;;;;;5070341;28;20908;-76
2022/07/23 13:19:12;;;;;;;0.80;0.50;;;;;;;;;;5046244;28;20518;-75
2022/07/23 13:21:44;;;;;;;0.90;0.80;;;;;;;;;;5057034;28;20462;-76
2022/07/23 13:24:12;;;;;;;1.30;0.70;;;;;;;;;;5073225;28;20441;-77
2022/07/23 13:26:40;;;;;;;0.90;0.60;;;;;;;;;;5057047;28;20473;-76
2022/07/23 13:29:08;;;;;;;0.90;0.80;;;;;;;;;;5070491;28;20419;-76
2022/07/23 13:31:37;;;;;;;0.90;0.70;;;;;;;;;;5066918;28;20500;-75
2022/07/23 13:34:05;;;;;;;1.17;0.90;;;;;;;;;;5074468;28;20439;-76
2022/07/23 13:36:33;;;;;;;2.50;0.70;;;;;;;;;;5072388;28;20462;-75
2022/07/23 13:39:00;;;;;;;0.90;0.70;;;;;;;;;;5055971;28;20484;-75
2022/07/23 13:41:27;;;;;;;1.40;0.90;;;;;;;;;;5054004;28;20438;-75
2022/07/23 13:43:55;;;;;;;0.80;0.67;;;;;;;;;;5053224;28;20479;-75
2022/07/23 13:46:25;;;;;;;0.80;0.50;;;;;;;;;;5057062;28;20457;-74
2022/07/23 13:48:53;;;;;;;0.80;0.60;;;;;;;;;;5052608;28;20443;-75
2022/07/23 13:51:20;;;;;;;0.80;0.50;;;;;;;;;;5052564;28;20455;-75
2022/07/23 13:53:50;;;;;;;0.80;0.50;;;;;;;;;;5037019;28;20497;-74
2022/07/23 13:56:17;;;;;;;0.80;0.60;;;;;;;;;;5052256;28;20428;-75
2022/07/23 13:58:44;;;;;;;1.10;0.70;;;;;;;;;;5057339;28;20427;-74
2022/07/23 14:01:12;;;;;;;0.80;0.53;;;;;;;;;;5072764;28;20527;-75
2022/07/23 14:03:41;;;;;;;0.90;0.60;;;;;;;;;;5061545;28;20434;-75
2022/07/23 14:06:07;;;;;;;1.23;1.10;;;;;;;;;;5059003;28;20591;-75
2022/07/23 14:08:42;;;;;;;0.87;0.63;;;;;;;;;;5068149;28;20963;-75
2022/07/23 14:11:10;;;;;;;1.07;0.73;;;;;;;;;;5053932;28;20450;-75
2022/07/23 14:13:37;;;;;;;1.10;0.80;;;;;;;;;;5052770;28;20503;-74
2022/07/23 14:16:05;;;;;;;0.90;0.60;;;;;;;;;;5068178;28;20937;-74
2022/07/23 14:18:31;;;;;;;0.80;0.50;;;;;;;;;;5073606;28;20415;-75
2022/07/23 14:21:02;;;;;;;0.80;0.50;;;;;;;;;;5071827;28;20505;-75
2022/07/23 14:23:29;;;;;;;1.00;0.67;;;;;;;;;;5039779;28;20435;-74
2022/07/23 14:25:56;;;;;;;0.83;0.57;;;;;;;;;;5053449;28;20466;-74
2022/07/23 14:28:23;;;;;;;0.80;0.60;;;;;;;;;;5052117;28;20511;-75
2022/07/23 14:30:50;;;;;;;0.90;0.77;;;;;;;;;;5052359;28;21039;-74
2022/07/23 14:33:20;;;;;;;1.00;0.80;;;;;;;;;;5055795;28;20905;-74
2022/07/23 14:35:47;;;;;;;0.90;0.60;;;;;;;;;;5076490;28;20446;-75
2022/07/23 14:38:15;;;;;;;0.90;0.70;;;;;;;;;;5072490;28;21233;-76
2022/07/23 14:40:43;;;;;;;1.10;0.90;;;;;;;;;;5053979;28;20445;-75
2022/07/23 14:43:10;;;;;;;1.00;0.60;;;;;;;;;;5071065;28;20545;-75
2022/07/23 14:45:38;;;;;;;0.90;0.60;;;;;;;;;;5074966;28;20520;-75
2022/07/23 14:48:05;;;;;;;1.20;0.77;;;;;;;;;;5073814;28;20854;-75
2022/07/23 14:50:32;;;;;;;0.80;0.50;;;;;;;;;;5072826;28;20530;-75
2022/07/23 14:52:58;;;;;;;1.03;0.80;;;;;;;;;;5061900;28;20454;-75
2022/07/23 14:55:27;;;;;;;0.80;0.50;;;;;;;;;;5056187;28;20449;-77
2022/07/23 14:57:54;;;;;;;4.30;1.03;;;;;;;;;;5058249;28;20436;-76
2022/07/23 15:00:24;;;;;;;1.10;0.60;;;;;;;;;;5058554;28;20437;-76
2022/07/23 15:02:52;;;;;;;1.40;1.07;;;;;;;;;;5058919;28;20503;-75